PIA462 OPIS-OPSD
Flight info
| Callsign | PIA462 |
|---|---|
| Flight time | 0h 41m |
| Altitude | 31000 |
| Route | BOBAM1R BOBAM DCT KAGLO J122 SANAM DCT |
| Aircraft | A320/M-SDE3FGHIRWY/LB1 |
Departure
| Time | 2026-04-25 01:12 |
|---|---|
| Airport | Islamabad International Airport (OPIS) |
Arrival
| Time | 2026-04-25 01:53 |
|---|---|
| Airport | Skardu International Airport (OPSD) |
| Time | Latitude | Longitude | Altitude | Speed | Heading |
|---|---|---|---|---|---|
| 2026-04-25 00:14 | 33.55721 | 72.83186 | 1770 ft | 0 kts | 99° |
| 2026-04-25 01:00 | 33.55721 | 72.83184 | 1770 ft | 2 kts | 99° |
| 2026-04-25 01:00 | 33.55726 | 72.83153 | 1770 ft | 4 kts | 104° |
| 2026-04-25 01:01 | 33.55734 | 72.83123 | 1770 ft | 4 kts | 116° |
| 2026-04-25 01:01 | 33.55749 | 72.83098 | 1770 ft | 4 kts | 155° |
| 2026-04-25 01:01 | 33.55761 | 72.83095 | 1770 ft | 0 kts | 191° |
| 2026-04-25 01:03 | 33.55748 | 72.83092 | 1770 ft | 5 kts | 191° |
| 2026-04-25 01:04 | 33.55694 | 72.83079 | 1772 ft | 8 kts | 191° |
| 2026-04-25 01:04 | 33.55644 | 72.83058 | 1770 ft | 7 kts | 211° |
| 2026-04-25 01:04 | 33.55612 | 72.82998 | 1773 ft | 13 kts | 240° |
| 2026-04-25 01:04 | 33.55557 | 72.82904 | 1771 ft | 15 kts | 235° |
| 2026-04-25 01:05 | 33.55495 | 72.82797 | 1773 ft | 16 kts | 235° |
| 2026-04-25 01:05 | 33.55427 | 72.82678 | 1773 ft | 18 kts | 235° |
| 2026-04-25 01:05 | 33.55326 | 72.82615 | 1770 ft | 17 kts | 191° |
| 2026-04-25 01:05 | 33.55210 | 72.82603 | 1768 ft | 16 kts | 158° |
| 2026-04-25 01:06 | 33.55173 | 72.82727 | 1768 ft | 17 kts | 100° |
| 2026-04-25 01:06 | 33.55152 | 72.82865 | 1772 ft | 17 kts | 100° |
| 2026-04-25 01:06 | 33.55128 | 72.83017 | 1768 ft | 19 kts | 101° |
| 2026-04-25 01:06 | 33.55103 | 72.83183 | 1768 ft | 21 kts | 100° |
| 2026-04-25 01:07 | 33.55076 | 72.83361 | 1771 ft | 22 kts | 101° |
| 2026-04-25 01:07 | 33.55049 | 72.83548 | 1770 ft | 23 kts | 99° |
| 2026-04-25 01:07 | 33.55017 | 72.83739 | 1769 ft | 24 kts | 99° |
| 2026-04-25 01:07 | 33.54985 | 72.83949 | 1768 ft | 26 kts | 101° |
| 2026-04-25 01:08 | 33.54953 | 72.84160 | 1768 ft | 26 kts | 100° |
| 2026-04-25 01:08 | 33.54920 | 72.84372 | 1771 ft | 26 kts | 100° |
| 2026-04-25 01:08 | 33.54894 | 72.84522 | 1770 ft | 14 kts | 109° |
| 2026-04-25 01:08 | 33.54807 | 72.84540 | 1769 ft | 16 kts | 193° |
| 2026-04-25 01:09 | 33.54707 | 72.84510 | 1762 ft | 9 kts | 219° |
| 2026-04-25 01:09 | 33.54704 | 72.84468 | 1765 ft | 0 kts | 279° |
| 2026-04-25 01:11 | 33.54708 | 72.84441 | 1762 ft | 18 kts | 279° |
| 2026-04-25 01:11 | 33.54781 | 72.83964 | 1763 ft | 94 kts | 281° |
| 2026-04-25 01:11 | 33.54940 | 72.82942 | 1764 ft | 153 kts | 280° |
| 2026-04-25 01:12 | 33.55167 | 72.81572 | 2129 ft | 169 kts | 279° |
| 2026-04-25 01:12 | 33.55380 | 72.80192 | 2849 ft | 171 kts | 278° |
| 2026-04-25 01:12 | 33.55596 | 72.78761 | 3520 ft | 178 kts | 279° |
| 2026-04-25 01:12 | 33.55836 | 72.77250 | 3936 ft | 193 kts | 279° |
| 2026-04-25 01:13 | 33.56099 | 72.75569 | 4189 ft | 218 kts | 281° |
| 2026-04-25 01:13 | 33.56283 | 72.73652 | 4538 ft | 244 kts | 265° |
| 2026-04-25 01:13 | 33.55679 | 72.71678 | 4939 ft | 269 kts | 233° |
| 2026-04-25 01:13 | 33.54210 | 72.70218 | 5604 ft | 281 kts | 210° |
| 2026-04-25 01:14 | 33.52372 | 72.69368 | 6399 ft | 288 kts | 192° |
| 2026-04-25 01:14 | 33.50370 | 72.69258 | 7192 ft | 291 kts | 172° |
| 2026-04-25 01:14 | 33.48426 | 72.69970 | 7966 ft | 295 kts | 153° |
| 2026-04-25 01:14 | 33.46772 | 72.71451 | 8707 ft | 300 kts | 132° |
| 2026-04-25 01:15 | 33.45625 | 72.73536 | 9430 ft | 303 kts | 112° |
| 2026-04-25 01:15 | 33.45135 | 72.75991 | 10152 ft | 307 kts | 93° |
| 2026-04-25 01:15 | 33.45012 | 72.78631 | 10410 ft | 330 kts | 92° |
| 2026-04-25 01:15 | 33.44899 | 72.81473 | 10595 ft | 353 kts | 92° |
| 2026-04-25 01:16 | 33.44843 | 72.84505 | 10796 ft | 374 kts | 86° |
| 2026-04-25 01:16 | 33.45233 | 72.87607 | 11334 ft | 381 kts | 75° |
| 2026-04-25 01:16 | 33.46120 | 72.90617 | 11973 ft | 385 kts | 64° |
| 2026-04-25 01:16 | 33.47337 | 72.93497 | 12626 ft | 390 kts | 62° |
| 2026-04-25 01:17 | 33.48582 | 72.96401 | 13268 ft | 394 kts | 62° |
| 2026-04-25 01:17 | 33.49414 | 72.98338 | 13686 ft | 397 kts | 62° |
| 2026-04-25 01:17 | 33.51114 | 73.02304 | 14505 ft | 403 kts | 62° |
| 2026-04-25 01:17 | 33.52422 | 73.05287 | 15114 ft | 406 kts | 58° |
| 2026-04-25 01:18 | 33.54134 | 73.07988 | 15689 ft | 408 kts | 44° |
| 2026-04-25 01:18 | 33.56329 | 73.10150 | 16255 ft | 411 kts | 30° |
| 2026-04-25 01:18 | 33.58892 | 73.11640 | 16830 ft | 410 kts | 16° |
| 2026-04-25 01:18 | 33.61714 | 73.12390 | 17408 ft | 410 kts | 2° |
| 2026-04-25 01:19 | 33.64554 | 73.12409 | 17982 ft | 411 kts | 354° |
| 2026-04-25 01:19 | 33.67429 | 73.12276 | 18568 ft | 414 kts | 354° |
| 2026-04-25 01:19 | 33.70323 | 73.12144 | 19139 ft | 418 kts | 354° |
| 2026-04-25 01:19 | 33.73200 | 73.12020 | 19672 ft | 421 kts | 354° |
| 2026-04-25 01:20 | 33.76174 | 73.11893 | 20217 ft | 423 kts | 354° |
| 2026-04-25 01:20 | 33.79127 | 73.11768 | 20721 ft | 426 kts | 354° |
| 2026-04-25 01:20 | 33.82101 | 73.11643 | 21185 ft | 429 kts | 354° |
| 2026-04-25 01:20 | 33.85097 | 73.11516 | 21653 ft | 432 kts | 354° |
| 2026-04-25 01:21 | 33.88113 | 73.11387 | 22105 ft | 436 kts | 354° |
| 2026-04-25 01:21 | 33.91149 | 73.11252 | 22547 ft | 438 kts | 354° |
| 2026-04-25 01:21 | 33.94206 | 73.11113 | 22973 ft | 441 kts | 354° |
| 2026-04-25 01:21 | 33.97278 | 73.10976 | 23383 ft | 442 kts | 353° |
| 2026-04-25 01:22 | 34.00327 | 73.10844 | 23777 ft | 445 kts | 353° |
| 2026-04-25 01:22 | 34.03429 | 73.10712 | 24153 ft | 448 kts | 354° |
| 2026-04-25 01:22 | 34.06553 | 73.10578 | 24524 ft | 450 kts | 353° |
| 2026-04-25 01:22 | 34.09689 | 73.10436 | 24881 ft | 452 kts | 353° |
| 2026-04-25 01:23 | 34.12841 | 73.10294 | 25241 ft | 455 kts | 353° |
| 2026-04-25 01:23 | 34.16015 | 73.10149 | 25603 ft | 457 kts | 353° |
| 2026-04-25 01:23 | 34.18163 | 73.10050 | 25852 ft | 458 kts | 353° |
| 2026-04-25 01:23 | 34.22397 | 73.09858 | 26296 ft | 461 kts | 353° |
| 2026-04-25 01:24 | 34.24565 | 73.09760 | 26494 ft | 462 kts | 353° |
| 2026-04-25 01:24 | 34.27791 | 73.09615 | 26820 ft | 465 kts | 353° |
| 2026-04-25 01:24 | 34.31025 | 73.09476 | 27127 ft | 466 kts | 353° |
| 2026-04-25 01:24 | 34.34272 | 73.09337 | 27399 ft | 468 kts | 353° |
| 2026-04-25 01:25 | 34.37535 | 73.09197 | 27661 ft | 470 kts | 353° |
| 2026-04-25 01:25 | 34.40804 | 73.09056 | 27928 ft | 471 kts | 353° |
| 2026-04-25 01:25 | 34.44040 | 73.08915 | 28178 ft | 472 kts | 353° |
| 2026-04-25 01:25 | 34.47326 | 73.08769 | 28421 ft | 473 kts | 353° |
| 2026-04-25 01:26 | 34.50631 | 73.08774 | 28636 ft | 480 kts | 1° |
| 2026-04-25 01:26 | 34.53930 | 73.09539 | 28919 ft | 487 kts | 12° |
| 2026-04-25 01:26 | 34.57075 | 73.11123 | 29201 ft | 493 kts | 25° |
| 2026-04-25 01:26 | 34.59921 | 73.13484 | 29465 ft | 499 kts | 37° |
| 2026-04-25 01:27 | 34.62331 | 73.16537 | 29707 ft | 505 kts | 50° |
| 2026-04-25 01:27 | 34.64255 | 73.20121 | 29995 ft | 507 kts | 56° |
| 2026-04-25 01:27 | 34.66086 | 73.23779 | 30251 ft | 507 kts | 57° |
| 2026-04-25 01:28 | 34.69747 | 73.31097 | 30762 ft | 507 kts | 56° |
| 2026-04-25 01:28 | 34.71576 | 73.34752 | 31030 ft | 507 kts | 56° |
| 2026-04-25 01:28 | 34.75225 | 73.42072 | 31108 ft | 505 kts | 56° |
| 2026-04-25 01:29 | 34.79068 | 73.49198 | 31118 ft | 502 kts | 47° |
| 2026-04-25 01:29 | 34.83777 | 73.55437 | 31126 ft | 500 kts | 44° |
| 2026-04-25 01:30 | 34.88507 | 73.61643 | 31137 ft | 500 kts | 44° |
| 2026-04-25 01:30 | 34.93238 | 73.67866 | 31143 ft | 501 kts | 44° |
| 2026-04-25 01:31 | 34.97974 | 73.74100 | 31163 ft | 501 kts | 44° |
| 2026-04-25 01:31 | 35.02707 | 73.80334 | 31169 ft | 501 kts | 44° |
| 2026-04-25 01:32 | 35.07458 | 73.86630 | 31173 ft | 501 kts | 45° |
| 2026-04-25 01:32 | 35.12169 | 73.92878 | 31164 ft | 500 kts | 45° |
| 2026-04-25 01:33 | 35.16843 | 73.99077 | 31159 ft | 499 kts | 45° |
| 2026-04-25 01:33 | 35.21545 | 74.05311 | 31162 ft | 498 kts | 45° |
| 2026-04-25 01:34 | 35.26306 | 74.11512 | 31169 ft | 500 kts | 44° |
| 2026-04-25 01:34 | 35.31074 | 74.17691 | 31179 ft | 499 kts | 45° |
| 2026-04-25 01:35 | 35.35836 | 74.23886 | 31179 ft | 499 kts | 45° |
| 2026-04-25 01:35 | 35.40593 | 74.30093 | 31180 ft | 499 kts | 45° |
| 2026-04-25 01:36 | 35.45349 | 74.36299 | 31183 ft | 499 kts | 45° |
| 2026-04-25 01:36 | 35.50090 | 74.42510 | 31181 ft | 498 kts | 45° |
| 2026-04-25 01:37 | 35.54820 | 74.48728 | 31181 ft | 498 kts | 45° |
| 2026-04-25 01:37 | 35.59545 | 74.54950 | 31177 ft | 497 kts | 45° |
| 2026-04-25 01:38 | 35.63975 | 74.61480 | 31179 ft | 500 kts | 57° |
| 2026-04-25 01:38 | 35.67391 | 74.68921 | 31174 ft | 499 kts | 62° |
| 2026-04-25 01:39 | 35.68802 | 74.72799 | 30604 ft | 494 kts | 70° |
| 2026-04-25 01:39 | 35.69720 | 74.76857 | 28725 ft | 497 kts | 81° |
| 2026-04-25 01:39 | 35.69988 | 74.81198 | 26709 ft | 508 kts | 93° |
| 2026-04-25 01:39 | 35.69632 | 74.85526 | 25425 ft | 506 kts | 101° |
| 2026-04-25 01:40 | 35.68817 | 74.89758 | 24066 ft | 508 kts | 108° |
| 2026-04-25 01:40 | 35.67852 | 74.93869 | 23039 ft | 504 kts | 107° |
| 2026-04-25 01:40 | 35.66887 | 74.97968 | 22141 ft | 497 kts | 107° |
| 2026-04-25 01:40 | 35.65930 | 75.02004 | 21432 ft | 483 kts | 108° |
| 2026-04-25 01:41 | 35.64984 | 75.05938 | 20365 ft | 480 kts | 108° |
| 2026-04-25 01:41 | 35.64046 | 75.09790 | 20284 ft | 462 kts | 108° |
| 2026-04-25 01:41 | 35.63138 | 75.13510 | 20310 ft | 444 kts | 108° |
| 2026-04-25 01:41 | 35.62269 | 75.17059 | 20305 ft | 425 kts | 108° |
| 2026-04-25 01:42 | 35.61438 | 75.20447 | 20309 ft | 399 kts | 108° |
| 2026-04-25 01:42 | 35.60667 | 75.23598 | 20223 ft | 372 kts | 108° |
| 2026-04-25 01:42 | 35.59937 | 75.26585 | 20091 ft | 349 kts | 109° |
| 2026-04-25 01:42 | 35.59104 | 75.29243 | 19922 ft | 330 kts | 118° |
| 2026-04-25 01:43 | 35.57967 | 75.31662 | 19606 ft | 325 kts | 127° |
| 2026-04-25 01:43 | 35.56562 | 75.33804 | 19303 ft | 320 kts | 136° |
| 2026-04-25 01:43 | 35.54936 | 75.35642 | 18993 ft | 315 kts | 144° |
| 2026-04-25 01:43 | 35.53151 | 75.37153 | 18445 ft | 310 kts | 150° |
| 2026-04-25 01:44 | 35.51320 | 75.38526 | 17831 ft | 307 kts | 150° |
| 2026-04-25 01:44 | 35.49504 | 75.39889 | 17254 ft | 306 kts | 149° |
| 2026-04-25 01:44 | 35.47676 | 75.41265 | 16467 ft | 310 kts | 149° |
| 2026-04-25 01:44 | 35.45833 | 75.42653 | 15690 ft | 312 kts | 149° |
| 2026-04-25 01:45 | 35.43973 | 75.44051 | 14902 ft | 315 kts | 150° |
| 2026-04-25 01:45 | 35.42079 | 75.45467 | 14119 ft | 322 kts | 149° |
| 2026-04-25 01:45 | 35.40183 | 75.46901 | 13328 ft | 319 kts | 149° |
| 2026-04-25 01:45 | 35.38298 | 75.48321 | 12577 ft | 317 kts | 149° |
| 2026-04-25 01:46 | 35.36429 | 75.49722 | 11821 ft | 314 kts | 149° |
| 2026-04-25 01:46 | 35.34572 | 75.51115 | 11016 ft | 312 kts | 149° |
| 2026-04-25 01:46 | 35.32740 | 75.52495 | 10453 ft | 304 kts | 149° |
| 2026-04-25 01:46 | 35.30967 | 75.53816 | 9978 ft | 294 kts | 149° |
| 2026-04-25 01:47 | 35.29255 | 75.55144 | 9833 ft | 282 kts | 142° |
| 2026-04-25 01:47 | 35.28027 | 75.56866 | 9952 ft | 261 kts | 116° |
| 2026-04-25 01:47 | 35.27595 | 75.58939 | 9891 ft | 247 kts | 85° |
| 2026-04-25 01:47 | 35.28059 | 75.60872 | 9914 ft | 238 kts | 50° |
| 2026-04-25 01:48 | 35.29364 | 75.62009 | 9925 ft | 236 kts | 8° |
| 2026-04-25 01:48 | 35.31011 | 75.62077 | 9695 ft | 239 kts | 345° |
| 2026-04-25 01:48 | 35.32522 | 75.61321 | 9595 ft | 236 kts | 322° |
| 2026-04-25 01:48 | 35.33819 | 75.60084 | 9523 ft | 231 kts | 316° |
| 2026-04-25 01:49 | 35.34938 | 75.58762 | 9498 ft | 220 kts | 310° |
| 2026-04-25 01:49 | 35.35966 | 75.57433 | 9456 ft | 212 kts | 310° |
| 2026-04-25 01:49 | 35.36839 | 75.56000 | 9403 ft | 209 kts | 304° |
| 2026-04-25 01:49 | 35.37701 | 75.54580 | 9391 ft | 207 kts | 310° |
| 2026-04-25 01:50 | 35.38718 | 75.53336 | 9364 ft | 206 kts | 320° |
| 2026-04-25 01:50 | 35.39905 | 75.52373 | 9231 ft | 204 kts | 337° |
| 2026-04-25 01:50 | 35.41232 | 75.51698 | 9173 ft | 209 kts | 332° |
| 2026-04-25 01:50 | 35.42216 | 75.50471 | 9158 ft | 204 kts | 285° |
| 2026-04-25 01:51 | 35.42090 | 75.48815 | 9214 ft | 201 kts | 231° |
| 2026-04-25 01:51 | 35.40908 | 75.48000 | 8862 ft | 203 kts | 177° |
| 2026-04-25 01:51 | 35.39710 | 75.48707 | 8470 ft | 192 kts | 128° |
| 2026-04-25 01:51 | 35.38950 | 75.49979 | 8359 ft | 178 kts | 131° |
| 2026-04-25 01:52 | 35.38044 | 75.50940 | 8286 ft | 170 kts | 149° |
| 2026-04-25 01:52 | 35.37046 | 75.51701 | 7866 ft | 168 kts | 148° |
| 2026-04-25 01:52 | 35.36066 | 75.52466 | 7505 ft | 163 kts | 149° |
| 2026-04-25 01:52 | 35.35125 | 75.53205 | 7333 ft | 158 kts | 148° |
| 2026-04-25 01:53 | 35.34312 | 75.53849 | 7321 ft | 104 kts | 147° |
| 2026-04-25 01:53 | 35.33921 | 75.54162 | 7318 ft | 49 kts | 147° |
| 2026-04-25 01:53 | 35.33647 | 75.54380 | 7320 ft | 43 kts | 147° |
| 2026-04-25 01:53 | 35.33437 | 75.54550 | 7319 ft | 21 kts | 143° |
| 2026-04-25 01:54 | 35.33344 | 75.54522 | 7319 ft | 16 kts | 237° |
| 2026-04-25 01:54 | 35.33291 | 75.54424 | 7319 ft | 5 kts | 237° |
| 2026-04-25 01:54 | 35.33278 | 75.54398 | 7319 ft | 3 kts | 239° |
| 2026-04-25 01:54 | 35.33262 | 75.54365 | 7319 ft | 7 kts | 239° |
| 2026-04-25 01:55 | 35.33237 | 75.54318 | 7319 ft | 6 kts | 237° |
| 2026-04-25 01:55 | 35.33212 | 75.54270 | 7319 ft | 8 kts | 237° |
| 2026-04-25 01:55 | 35.33177 | 75.54205 | 7319 ft | 11 kts | 236° |
| 2026-04-25 01:55 | 35.33131 | 75.54121 | 7319 ft | 13 kts | 236° |
| 2026-04-25 01:56 | 35.33071 | 75.54092 | 7319 ft | 5 kts | 150° |
| 2026-04-25 01:56 | 35.33069 | 75.54094 | 7319 ft | 0 kts | 146° |